East Waterford, Pennsylvania
Current Conditions -  °F | °C
As of 1:53 PM on Sunday 23 Nov 2014 (Local Time) from KUNV Reporting Station
Scattered Clouds Scattered Clouds  
Wind Chill: 55°   Ceiling: Unl
Heat Index: 55°   Visibility: 10mi
Dew Point: 32°   Wind: 0mph
Humidity: 41%   Direction: NA
Pressure: 30.03"   Gusts: NA
Location:  40.37°N, 77.6°W
Report Text: KUNV 231853Z 00000KT 10SM SCT075 13/00 A3003
Loading
Personal Weather Stations






























Interactive Weather Map New forecast layout! Learn more

10-Day Weather Forecast

Advertisements
Track Severe Weather on mobile